createdAt,value
2022-12-18T00:01:18.704Z,44.93
2022-12-18T00:03:46.930Z,43.07
2022-12-18T00:06:15.635Z,44.07
2022-12-18T00:08:43.460Z,46.70
2022-12-18T00:11:13.387Z,48.10
2022-12-18T00:13:40.637Z,47.50
2022-12-18T00:16:10.857Z,46.10
2022-12-18T00:18:38.025Z,47.17
2022-12-18T00:21:07.527Z,44.67
2022-12-18T00:23:35.988Z,47.63
2022-12-18T00:26:05.702Z,41.20
2022-12-18T00:28:32.379Z,41.00
2022-12-18T00:31:03.407Z,49.83
2022-12-18T00:33:30.171Z,42.53
2022-12-18T00:36:08.833Z,46.50
2022-12-18T00:38:35.512Z,39.47
2022-12-18T00:41:02.779Z,40.60
2022-12-18T00:43:29.657Z,41.80
2022-12-18T00:45:56.856Z,43.10
2022-12-18T00:48:23.609Z,51.08
2022-12-18T00:50:50.460Z,52.45
2022-12-18T00:53:17.594Z,55.00
2022-12-18T00:55:44.672Z,40.93
2022-12-18T00:58:16.918Z,34.97
2022-12-18T01:00:44.011Z,42.67
2022-12-18T01:03:16.924Z,39.60
2022-12-18T01:05:44.343Z,43.78
2022-12-18T01:08:11.798Z,42.37
2022-12-18T01:10:42.292Z,41.30
2022-12-18T01:13:09.161Z,43.28
2022-12-18T01:15:35.936Z,49.77
2022-12-18T01:18:02.615Z,48.20
2022-12-18T01:20:29.218Z,57.43
2022-12-18T01:22:55.809Z,47.37
2022-12-18T01:25:22.482Z,43.07
2022-12-18T01:27:50.950Z,76.10
2022-12-18T01:30:17.643Z,37.77
2022-12-18T01:32:45.685Z,34.80
2022-12-18T01:35:12.257Z,36.10
2022-12-18T01:37:38.856Z,35.97
2022-12-18T01:40:06.223Z,30.53
2022-12-18T01:42:32.814Z,38.80
2022-12-18T01:45:04.836Z,34.07
2022-12-18T01:48:00.506Z,43.03
2022-12-18T01:50:32.705Z,37.33
2022-12-18T01:53:04.790Z,37.20
2022-12-18T01:55:38.306Z,34.67
2022-12-18T01:58:05.558Z,41.50
2022-12-18T02:00:33.030Z,36.73
2022-12-18T02:02:59.763Z,52.63
2022-12-18T02:05:44.659Z,39.00
2022-12-18T02:08:21.274Z,36.07
2022-12-18T02:11:29.053Z,45.40
2022-12-18T02:14:25.191Z,157.20
2022-12-18T02:17:03.552Z,59.90
2022-12-18T02:20:03.874Z,36.57
2022-12-18T02:22:54.893Z,53.50
2022-12-18T02:25:30.925Z,42.47
2022-12-18T02:28:00.393Z,38.67
2022-12-18T02:30:30.020Z,51.77
2022-12-18T02:32:58.549Z,34.03
2022-12-18T02:35:28.620Z,49.23
2022-12-18T02:37:59.628Z,63.40
2022-12-18T02:40:31.221Z,45.67
2022-12-18T02:43:13.957Z,36.80
2022-12-18T02:45:59.435Z,49.90
2022-12-18T02:48:34.001Z,42.93
2022-12-18T02:51:18.481Z,38.03
2022-12-18T02:53:57.020Z,41.30
2022-12-18T02:56:33.420Z,32.17
2022-12-18T02:59:10.515Z,37.90
2022-12-18T03:01:53.568Z,34.83
2022-12-18T03:04:30.024Z,41.53
2022-12-18T03:07:04.449Z,40.20
2022-12-18T03:09:36.444Z,37.90
2022-12-18T03:12:23.900Z,32.17
2022-12-18T03:14:57.514Z,31.83
2022-12-18T03:19:57.558Z,34.10
2022-12-18T03:22:28.239Z,34.23
2022-12-18T03:24:57.477Z,34.53
2022-12-18T03:27:27.156Z,32.77
2022-12-18T03:30:14.288Z,33.83
2022-12-18T03:32:56.520Z,34.60
2022-12-18T03:35:34.448Z,28.80
2022-12-18T03:38:01.415Z,33.65
2022-12-18T03:40:36.922Z,33.57
2022-12-18T03:43:17.262Z,29.63
2022-12-18T03:45:53.480Z,32.30
2022-12-18T03:48:38.897Z,30.77
2022-12-18T03:51:54.168Z,32.57
2022-12-18T03:54:22.395Z,28.40
2022-12-18T03:57:14.655Z,31.10
2022-12-18T03:59:43.880Z,26.30
2022-12-18T04:02:12.279Z,27.27
2022-12-18T04:04:41.135Z,26.03
2022-12-18T04:07:08.528Z,22.73
2022-12-18T04:09:40.828Z,25.40
2022-12-18T04:12:09.872Z,25.53
2022-12-18T04:14:36.664Z,23.20
2022-12-18T04:17:05.572Z,21.30
2022-12-18T04:19:33.694Z,21.03
2022-12-18T04:22:02.209Z,22.07
2022-12-18T04:24:33.841Z,22.30
2022-12-18T04:27:16.936Z,18.92
2022-12-18T04:29:48.571Z,27.77
2022-12-18T04:32:17.287Z,28.57
2022-12-18T04:34:44.909Z,28.40
2022-12-18T04:37:12.271Z,29.80
2022-12-18T04:39:39.328Z,30.33
2022-12-18T04:42:11.833Z,28.88
2022-12-18T04:44:38.444Z,30.20
2022-12-18T04:47:05.066Z,28.70
2022-12-18T04:49:31.624Z,24.13
2022-12-18T04:51:58.257Z,24.10
2022-12-18T04:54:24.876Z,28.30
2022-12-18T04:56:51.438Z,24.03
2022-12-18T04:59:18.092Z,25.20
2022-12-18T05:01:44.771Z,25.80
2022-12-18T05:04:11.566Z,25.63
2022-12-18T05:06:38.152Z,21.47
2022-12-18T05:09:04.815Z,21.47
2022-12-18T05:11:32.665Z,27.13
2022-12-18T05:13:59.246Z,25.43
2022-12-18T05:16:26.063Z,24.13
2022-12-18T05:18:52.748Z,23.47
2022-12-18T05:21:19.330Z,24.80
2022-12-18T05:23:45.942Z,22.57
2022-12-18T05:26:18.131Z,22.50
2022-12-18T05:28:45.127Z,20.10
2022-12-18T05:31:12.273Z,16.77
2022-12-18T05:33:39.316Z,21.37
2022-12-18T05:36:08.878Z,20.03
2022-12-18T05:38:37.515Z,20.27
2022-12-18T05:41:04.917Z,25.07
2022-12-18T05:43:31.909Z,26.27
2022-12-18T05:45:58.546Z,22.97
2022-12-18T05:48:25.152Z,23.83
2022-12-18T05:50:51.881Z,25.20
2022-12-18T05:53:20.578Z,21.90
2022-12-18T05:55:47.550Z,25.17
2022-12-18T05:58:15.305Z,23.07
2022-12-18T06:00:44.609Z,22.67
2022-12-18T06:03:12.704Z,23.97
2022-12-18T06:05:41.959Z,24.50
2022-12-18T06:08:09.614Z,25.03
2022-12-18T06:10:36.753Z,24.83
2022-12-18T06:13:03.587Z,25.83
2022-12-18T06:15:30.151Z,23.27
2022-12-18T06:17:56.765Z,24.60
2022-12-18T06:20:24.710Z,27.23
2022-12-18T06:22:53.281Z,22.73
2022-12-18T06:25:19.853Z,25.07
2022-12-18T06:27:48.837Z,22.00
2022-12-18T06:30:15.452Z,22.27
2022-12-18T06:32:42.038Z,28.03
2022-12-18T06:35:08.939Z,24.70
2022-12-18T06:37:35.620Z,21.67
2022-12-18T06:40:02.215Z,21.53
2022-12-18T06:42:29.948Z,19.60
2022-12-18T06:44:56.538Z,22.10
2022-12-18T06:47:23.151Z,23.50
2022-12-18T06:49:49.702Z,18.00
2022-12-18T06:52:17.487Z,21.27
2022-12-18T06:54:44.095Z,20.23
2022-12-18T06:57:10.678Z,20.73
2022-12-18T06:59:37.274Z,19.53
2022-12-18T07:02:03.906Z,20.70
2022-12-18T07:04:30.828Z,16.47
2022-12-18T07:06:58.275Z,18.33
2022-12-18T07:09:25.252Z,17.27
2022-12-18T07:11:52.790Z,17.60
2022-12-18T07:14:19.437Z,19.10
2022-12-18T07:16:46.107Z,19.00
2022-12-18T07:19:12.740Z,18.27
2022-12-18T07:21:39.375Z,19.60
2022-12-18T07:24:06.679Z,23.20
2022-12-18T07:26:33.271Z,24.53
2022-12-18T07:28:59.934Z,27.03
2022-12-18T07:31:27.309Z,26.93
2022-12-18T07:33:54.579Z,27.67
2022-12-18T07:36:24.351Z,25.33
2022-12-18T07:38:52.922Z,21.10
2022-12-18T07:41:20.349Z,21.50
2022-12-18T07:43:47.358Z,23.37
2022-12-18T07:46:15.087Z,23.27
2022-12-18T07:48:43.037Z,22.17
2022-12-18T07:51:11.368Z,21.20
2022-12-18T07:53:38.313Z,20.97
2022-12-18T07:58:55.743Z,21.47
2022-12-18T08:01:22.546Z,19.90
2022-12-18T08:03:49.509Z,21.43
2022-12-18T08:06:18.512Z,20.38
2022-12-18T08:08:45.155Z,20.50
2022-12-18T08:11:11.973Z,20.75
2022-12-18T08:13:38.904Z,19.17
2022-12-18T08:16:08.079Z,22.65
2022-12-18T08:18:36.557Z,21.88
2022-12-18T08:21:14.018Z,23.58
2022-12-18T08:23:42.966Z,28.42
2022-12-18T08:26:11.111Z,26.92
2022-12-18T08:28:37.860Z,26.50
2022-12-18T08:31:04.958Z,24.83
2022-12-18T08:33:32.054Z,29.25
2022-12-18T08:36:02.608Z,33.17
2022-12-18T08:38:29.540Z,32.42
2022-12-18T08:41:08.852Z,29.48
2022-12-18T08:43:53.946Z,27.75
2022-12-18T08:46:22.305Z,29.65
2022-12-18T08:48:51.018Z,28.50
2022-12-18T08:51:18.210Z,30.52
2022-12-18T08:53:45.496Z,111.57
2022-12-18T08:56:12.765Z,57.78
2022-12-18T08:58:39.469Z,24.10
2022-12-18T09:01:08.430Z,22.58
2022-12-18T09:03:35.111Z,18.70
2022-12-18T09:06:02.121Z,18.95
2022-12-18T09:08:29.168Z,20.63
2022-12-18T09:10:56.242Z,20.33
2022-12-18T09:13:23.227Z,25.02
2022-12-18T09:15:52.368Z,20.02
2022-12-18T09:18:21.143Z,21.52
2022-12-18T09:20:48.450Z,22.23
2022-12-18T09:23:15.503Z,21.95
2022-12-18T09:25:42.165Z,24.20
2022-12-18T09:28:14.606Z,22.70
2022-12-18T09:30:44.304Z,21.90
2022-12-18T09:33:11.300Z,22.52
2022-12-18T09:35:40.391Z,21.88
2022-12-18T09:38:07.449Z,23.92
2022-12-18T09:40:37.676Z,21.42
2022-12-18T09:43:05.959Z,27.15
2022-12-18T09:45:43.562Z,24.40
2022-12-18T09:48:28.449Z,21.83
2022-12-18T09:51:01.766Z,22.02
2022-12-18T09:53:35.448Z,18.42
2022-12-18T09:56:04.988Z,19.33
2022-12-18T09:58:35.798Z,20.15
2022-12-18T10:01:02.665Z,19.00
2022-12-18T10:03:29.299Z,19.50
2022-12-18T10:06:14.836Z,20.38
2022-12-18T10:08:54.395Z,21.52
2022-12-18T10:11:53.241Z,22.67
2022-12-18T10:14:47.908Z,25.20
2022-12-18T10:17:20.692Z,25.48
2022-12-18T10:19:54.668Z,23.02
2022-12-18T10:23:02.650Z,24.52
2022-12-18T10:25:44.203Z,26.35
2022-12-18T10:28:16.174Z,22.42
2022-12-18T10:30:44.034Z,40.03
2022-12-18T10:33:25.924Z,49.42
2022-12-18T10:35:52.761Z,28.52
2022-12-18T10:38:20.118Z,23.00
2022-12-18T10:40:54.242Z,23.88
2022-12-18T10:43:31.327Z,26.23
2022-12-18T10:46:10.180Z,25.60
2022-12-18T10:48:40.236Z,31.52
2022-12-18T10:51:12.149Z,25.67
2022-12-18T10:53:42.939Z,28.75
2022-12-18T10:56:09.892Z,32.00
2022-12-18T10:58:39.457Z,29.88
2022-12-18T11:01:06.312Z,29.10
2022-12-18T11:03:41.422Z,35.78
2022-12-18T11:06:12.521Z,31.83
2022-12-18T11:08:40.228Z,31.25
2022-12-18T11:11:21.866Z,32.65
2022-12-18T11:14:01.535Z,37.10
2022-12-18T11:16:31.894Z,34.83
2022-12-18T11:19:23.608Z,39.47
2022-12-18T11:21:50.243Z,36.28
2022-12-18T11:24:35.412Z,33.38
2022-12-18T11:27:05.470Z,36.50
2022-12-18T11:29:46.213Z,35.20
2022-12-18T11:32:16.282Z,36.85
2022-12-18T11:34:55.955Z,35.05
2022-12-18T11:37:26.636Z,36.72
2022-12-18T11:40:02.766Z,34.15
2022-12-18T11:42:55.812Z,38.92
2022-12-18T11:45:32.534Z,36.13
2022-12-18T11:48:04.781Z,37.85
2022-12-18T11:50:37.681Z,33.10
2022-12-18T11:53:06.237Z,33.97
2022-12-18T11:55:57.798Z,38.97
2022-12-18T11:59:00.633Z,37.63
2022-12-18T12:01:43.400Z,43.23
2022-12-18T12:04:23.157Z,37.58
2022-12-18T12:06:52.405Z,36.28
2022-12-18T12:09:30.332Z,38.03
2022-12-18T12:12:29.586Z,42.97
2022-12-18T12:15:14.093Z,42.67
2022-12-18T12:17:43.445Z,39.75
2022-12-18T12:20:15.910Z,37.47
2022-12-18T12:23:08.926Z,39.28
2022-12-18T12:25:47.990Z,39.00
2022-12-18T12:28:47.071Z,39.75
2022-12-18T12:31:50.573Z,43.42
2022-12-18T12:34:43.242Z,40.47
2022-12-18T12:37:21.899Z,40.77
2022-12-18T12:39:49.140Z,43.50
2022-12-18T12:42:55.233Z,41.95
2022-12-18T12:45:29.319Z,43.78
2022-12-18T12:47:58.774Z,43.60
2022-12-18T12:50:26.470Z,37.97
2022-12-18T12:52:56.663Z,42.25
2022-12-18T12:55:26.284Z,41.10
2022-12-18T12:57:53.846Z,44.85
2022-12-18T13:00:20.953Z,50.35
2022-12-18T13:03:06.770Z,43.05
2022-12-18T13:05:55.764Z,42.85
2022-12-18T13:08:33.915Z,42.45
2022-12-18T13:11:21.102Z,44.10
2022-12-18T13:13:53.548Z,43.45
2022-12-18T13:16:24.571Z,45.08
2022-12-18T13:18:53.488Z,47.15
2022-12-18T13:21:29.388Z,44.63
2022-12-18T13:23:58.300Z,49.30
2022-12-18T13:26:28.865Z,47.38
2022-12-18T13:28:57.267Z,45.75
2022-12-18T13:31:42.564Z,44.95
2022-12-18T13:34:41.758Z,44.00
2022-12-18T13:37:32.983Z,47.70
2022-12-18T13:39:59.645Z,44.50
2022-12-18T13:42:58.668Z,52.67
2022-12-18T13:45:41.156Z,44.75
2022-12-18T13:48:17.284Z,47.00
2022-12-18T13:50:44.398Z,48.47
2022-12-18T13:53:34.989Z,46.25
2022-12-18T13:56:03.656Z,47.72
2022-12-18T13:58:30.580Z,43.47
2022-12-18T14:01:00.070Z,46.63
2022-12-18T14:03:29.475Z,48.05
2022-12-18T14:06:02.206Z,45.53
2022-12-18T14:08:35.903Z,46.30
2022-12-18T14:11:05.247Z,46.95
2022-12-18T14:13:36.521Z,48.42
2022-12-18T14:16:05.875Z,43.88
2022-12-18T14:18:45.006Z,44.03
2022-12-18T14:21:21.959Z,45.05
2022-12-18T14:23:49.119Z,41.47
2022-12-18T14:26:33.182Z,42.60
2022-12-18T14:29:02.738Z,42.17
2022-12-18T14:31:31.780Z,44.00
2022-12-18T14:33:58.505Z,40.92
2022-12-18T14:36:28.426Z,39.03
2022-12-18T14:38:59.547Z,46.95
2022-12-18T14:41:29.655Z,45.20
2022-12-18T14:44:05.939Z,44.08
2022-12-18T14:46:37.856Z,40.97
2022-12-18T14:49:18.879Z,44.40
2022-12-18T14:52:06.736Z,45.43
2022-12-18T14:54:38.188Z,43.00
2022-12-18T14:57:25.855Z,42.72
2022-12-18T14:59:52.590Z,42.50
2022-12-18T15:02:28.937Z,43.87
2022-12-18T15:05:12.697Z,44.55
2022-12-18T15:07:44.488Z,45.07
2022-12-18T15:10:26.077Z,42.33
2022-12-18T15:13:00.694Z,43.50
2022-12-18T15:15:39.270Z,43.72
2022-12-18T15:18:11.975Z,44.28
2022-12-18T15:21:09.313Z,47.42
2022-12-18T15:23:46.298Z,49.22
2022-12-18T15:26:15.613Z,46.28
2022-12-18T15:28:52.352Z,41.63
2022-12-18T15:31:29.232Z,42.85
2022-12-18T15:33:55.843Z,42.97
2022-12-18T15:36:26.879Z,52.78
2022-12-18T15:38:56.132Z,47.63
2022-12-18T15:41:34.521Z,46.97
2022-12-18T15:44:03.835Z,40.85
2022-12-18T15:46:31.909Z,46.97
2022-12-18T15:49:02.239Z,44.83
2022-12-18T15:51:37.641Z,42.92
2022-12-18T15:54:06.885Z,46.42
2022-12-18T15:56:52.032Z,45.80
2022-12-18T15:59:20.605Z,48.23
2022-12-18T16:01:49.738Z,47.03
2022-12-18T16:04:21.054Z,46.45
2022-12-18T16:07:13.891Z,46.83
2022-12-18T16:09:35.189Z,45.22
2022-12-18T16:12:01.841Z,47.47
2022-12-18T16:14:32.413Z,48.30
2022-12-18T16:17:01.472Z,44.25
2022-12-18T16:19:28.871Z,48.83
2022-12-18T16:21:57.723Z,49.80
2022-12-18T16:24:29.715Z,48.13
2022-12-18T16:27:01.447Z,44.45
2022-12-18T16:29:29.981Z,49.40
2022-12-18T16:32:01.726Z,51.03
2022-12-18T16:34:32.903Z,51.75
2022-12-18T16:37:05.876Z,52.45
2022-12-18T16:39:37.205Z,51.97
2022-12-18T16:42:13.671Z,52.43
2022-12-18T16:44:40.728Z,45.60
2022-12-18T16:47:09.258Z,52.10
2022-12-18T16:49:37.858Z,50.90
2022-12-18T16:52:11.256Z,47.87
2022-12-18T16:54:39.472Z,50.40
2022-12-18T16:57:07.126Z,48.33
2022-12-18T16:59:35.094Z,54.35
2022-12-18T17:02:13.292Z,49.80
2022-12-18T17:04:40.213Z,52.60
2022-12-18T17:07:06.884Z,53.67
2022-12-18T17:09:34.901Z,50.97
2022-12-18T17:12:04.541Z,55.50
2022-12-18T17:14:33.062Z,48.13
2022-12-18T17:17:20.343Z,53.38
2022-12-18T17:19:47.275Z,51.83
2022-12-18T17:22:14.474Z,52.10
2022-12-18T17:24:42.243Z,55.90
2022-12-18T17:27:09.001Z,50.17
2022-12-18T17:29:41.125Z,56.10
2022-12-18T17:32:12.324Z,49.55
2022-12-18T17:34:41.865Z,54.63
2022-12-18T17:37:12.086Z,55.83
2022-12-18T17:39:41.572Z,54.50
2022-12-18T17:42:11.466Z,51.30
2022-12-18T17:44:42.539Z,51.50
2022-12-18T17:47:14.789Z,51.23
2022-12-18T17:49:42.802Z,52.20
2022-12-18T17:52:10.786Z,53.33
2022-12-18T17:54:40.134Z,51.17
2022-12-18T17:57:07.913Z,53.57
2022-12-18T17:59:34.609Z,54.30
2022-12-18T18:02:01.436Z,52.17
2022-12-18T18:04:28.233Z,55.67
2022-12-18T18:06:54.872Z,56.30
2022-12-18T18:09:21.493Z,56.83
2022-12-18T18:12:06.688Z,51.93
2022-12-18T18:14:33.554Z,60.17
2022-12-18T18:17:04.870Z,58.67
2022-12-18T18:19:32.953Z,66.72
2022-12-18T18:21:59.696Z,59.07
2022-12-18T18:24:27.685Z,58.45
2022-12-18T18:26:55.655Z,53.87
2022-12-18T18:29:26.679Z,56.17
2022-12-18T18:31:54.681Z,57.20
2022-12-18T18:34:28.063Z,55.13
2022-12-18T18:36:54.633Z,54.17
2022-12-18T18:39:21.339Z,56.13
2022-12-18T18:41:48.812Z,55.60
2022-12-18T18:44:20.479Z,57.00
2022-12-18T18:46:49.559Z,49.23
2022-12-18T18:49:21.068Z,58.38
2022-12-18T18:51:50.620Z,53.00
2022-12-18T18:54:17.203Z,56.40
2022-12-18T18:59:31.503Z,53.60
2022-12-18T19:02:00.600Z,57.83
2022-12-18T19:04:31.823Z,57.45
2022-12-18T19:06:58.394Z,53.33
2022-12-18T19:09:26.163Z,57.50
2022-12-18T19:12:11.845Z,53.95
2022-12-18T19:14:38.566Z,51.33
2022-12-18T19:17:05.149Z,51.25
2022-12-18T19:19:32.610Z,51.05
2022-12-18T19:21:59.193Z,52.53
2022-12-18T19:24:25.908Z,51.72
2022-12-18T19:26:56.840Z,52.63
2022-12-18T19:29:25.170Z,55.00
2022-12-18T19:31:51.878Z,53.90
2022-12-18T19:34:18.530Z,53.57
2022-12-18T19:36:46.499Z,51.47
2022-12-18T19:39:16.628Z,56.60
2022-12-18T19:41:44.264Z,46.85
2022-12-18T19:44:13.005Z,50.73
2022-12-18T19:46:41.965Z,51.67
2022-12-18T19:49:38.442Z,54.47
2022-12-18T19:51:59.175Z,57.80
2022-12-18T19:54:25.961Z,51.07
2022-12-18T19:56:53.404Z,52.23
2022-12-18T19:59:19.990Z,60.77
2022-12-18T20:01:46.776Z,58.23
2022-12-18T20:04:13.636Z,65.13
2022-12-18T20:06:49.251Z,58.27
2022-12-18T20:09:16.559Z,62.27
2022-12-18T20:11:43.600Z,55.60
2022-12-18T20:14:11.850Z,54.93
2022-12-18T20:16:38.734Z,49.63
2022-12-18T20:19:06.363Z,53.17
2022-12-18T20:21:33.557Z,55.77
2022-12-18T20:24:01.309Z,50.37
2022-12-18T20:26:28.511Z,50.13
2022-12-18T20:28:55.383Z,51.05
2022-12-18T20:31:22.895Z,54.03
2022-12-18T20:33:50.966Z,48.03
2022-12-18T20:36:21.257Z,47.00
2022-12-18T20:38:54.657Z,50.83
2022-12-18T20:41:24.287Z,55.00
2022-12-18T20:43:51.640Z,52.80
2022-12-18T20:46:18.416Z,49.60
2022-12-18T20:48:45.833Z,52.85
2022-12-18T20:51:15.400Z,50.23
2022-12-18T20:53:42.804Z,49.57
2022-12-18T20:56:30.691Z,48.23
2022-12-18T20:58:58.665Z,45.83
2022-12-18T21:01:26.213Z,49.53
2022-12-18T21:03:53.806Z,52.53
2022-12-18T21:06:21.921Z,49.27
2022-12-18T21:08:49.373Z,55.17
2022-12-18T21:11:44.197Z,53.40
2022-12-18T21:14:19.998Z,59.27
2022-12-18T21:16:47.601Z,55.50
2022-12-18T21:19:17.056Z,54.93
2022-12-18T21:21:44.753Z,47.43
2022-12-18T21:24:12.254Z,52.73
2022-12-18T21:26:45.432Z,51.80
2022-12-18T21:29:19.243Z,50.27
2022-12-18T21:31:46.472Z,50.10
2022-12-18T21:34:27.680Z,51.60
2022-12-18T21:36:56.184Z,51.57
2022-12-18T21:39:24.856Z,53.38
2022-12-18T21:42:10.586Z,51.93
2022-12-18T21:44:42.333Z,49.40
2022-12-18T21:47:17.577Z,47.30
2022-12-18T21:49:51.180Z,46.93
2022-12-18T21:52:17.803Z,48.57
2022-12-18T21:54:44.378Z,45.47
2022-12-18T21:57:13.341Z,47.70
2022-12-18T21:59:42.308Z,49.63
2022-12-18T22:02:12.128Z,45.23
2022-12-18T22:04:38.943Z,43.83
2022-12-18T22:07:06.194Z,47.77
2022-12-18T22:09:32.810Z,51.20
2022-12-18T22:11:59.600Z,47.07
2022-12-18T22:14:26.822Z,49.50
2022-12-18T22:16:53.724Z,43.00
2022-12-18T22:19:21.665Z,47.70
2022-12-18T22:21:49.321Z,43.60
2022-12-18T22:24:24.829Z,45.67
2022-12-18T22:26:54.291Z,44.28
2022-12-18T22:29:46.790Z,50.03
2022-12-18T22:32:16.915Z,49.33
2022-12-18T22:34:48.131Z,44.40
2022-12-18T22:37:14.742Z,42.37
2022-12-18T22:39:41.301Z,47.90
2022-12-18T22:42:08.797Z,42.97
2022-12-18T22:44:35.399Z,42.10
2022-12-18T22:47:05.950Z,41.72
2022-12-18T22:49:35.686Z,44.85
2022-12-18T22:52:09.289Z,42.97
2022-12-18T22:54:36.203Z,47.55
2022-12-18T22:57:02.778Z,44.38
2022-12-18T22:59:29.883Z,46.23
2022-12-18T23:01:59.227Z,43.97
2022-12-18T23:04:33.448Z,44.88
2022-12-18T23:07:05.188Z,44.20
2022-12-18T23:09:32.534Z,45.90
2022-12-18T23:11:59.263Z,45.33
2022-12-18T23:14:25.956Z,44.10
2022-12-18T23:16:53.215Z,43.47
2022-12-18T23:19:20.749Z,43.20
2022-12-18T23:21:47.701Z,38.72
2022-12-18T23:24:14.572Z,41.28
2022-12-18T23:26:41.368Z,44.13
2022-12-18T23:29:08.199Z,39.90
2022-12-18T23:31:38.412Z,41.33
2022-12-18T23:34:06.293Z,43.10
2022-12-18T23:36:46.068Z,42.03
2022-12-18T23:39:22.383Z,46.03
2022-12-18T23:41:59.157Z,43.85
2022-12-18T23:44:25.889Z,46.37
2022-12-18T23:46:52.811Z,43.75
2022-12-18T23:49:19.498Z,42.70
2022-12-18T23:51:46.072Z,43.93
2022-12-18T23:54:12.642Z,42.75
2022-12-18T23:56:39.230Z,46.07
2022-12-18T23:59:05.805Z,39.97
